sensor_id;sensor_type;location;lat;lon;timestamp;P1;durP1;ratioP1;P2;durP2;ratioP2
23115;SDS011;11727;52.134;5.052;2022-11-30T00:00:16;10.13;;;4.47;;
23115;SDS011;11727;52.134;5.052;2022-11-30T00:02:42;9.55;;;4.57;;
23115;SDS011;11727;52.134;5.052;2022-11-30T00:05:08;12.77;;;5.30;;
23115;SDS011;11727;52.134;5.052;2022-11-30T00:07:34;8.73;;;5.68;;
23115;SDS011;11727;52.134;5.052;2022-11-30T00:09:59;10.23;;;4.80;;
23115;SDS011;11727;52.134;5.052;2022-11-30T00:12:25;10.52;;;5.35;;
23115;SDS011;11727;52.134;5.052;2022-11-30T00:14:52;10.13;;;5.47;;
23115;SDS011;11727;52.134;5.052;2022-11-30T00:17:17;20.33;;;6.38;;
23115;SDS011;11727;52.134;5.052;2022-11-30T00:19:43;11.27;;;5.78;;
23115;SDS011;11727;52.134;5.052;2022-11-30T00:22:09;11.90;;;5.07;;
23115;SDS011;11727;52.134;5.052;2022-11-30T00:24:34;15.85;;;6.63;;
23115;SDS011;11727;52.134;5.052;2022-11-30T00:27:00;11.90;;;6.25;;
23115;SDS011;11727;52.134;5.052;2022-11-30T00:29:25;11.18;;;5.28;;
23115;SDS011;11727;52.134;5.052;2022-11-30T00:31:51;11.63;;;5.88;;
23115;SDS011;11727;52.134;5.052;2022-11-30T00:34:16;13.57;;;5.25;;
23115;SDS011;11727;52.134;5.052;2022-11-30T00:36:42;12.38;;;5.25;;
23115;SDS011;11727;52.134;5.052;2022-11-30T00:39:07;10.85;;;5.70;;
23115;SDS011;11727;52.134;5.052;2022-11-30T00:41:33;14.77;;;5.82;;
23115;SDS011;11727;52.134;5.052;2022-11-30T00:43:58;13.23;;;6.15;;
23115;SDS011;11727;52.134;5.052;2022-11-30T00:46:24;14.63;;;6.25;;
23115;SDS011;11727;52.134;5.052;2022-11-30T00:48:50;13.13;;;6.57;;
23115;SDS011;11727;52.134;5.052;2022-11-30T00:51:15;14.48;;;6.38;;
23115;SDS011;11727;52.134;5.052;2022-11-30T00:53:42;10.70;;;4.93;;
23115;SDS011;11727;52.134;5.052;2022-11-30T00:56:08;15.35;;;5.80;;
23115;SDS011;11727;52.134;5.052;2022-11-30T00:58:34;12.07;;;5.60;;
23115;SDS011;11727;52.134;5.052;2022-11-30T01:01:00;11.85;;;5.82;;
23115;SDS011;11727;52.134;5.052;2022-11-30T01:03:25;17.30;;;6.00;;
23115;SDS011;11727;52.134;5.052;2022-11-30T01:05:51;14.82;;;6.32;;
23115;SDS011;11727;52.134;5.052;2022-11-30T01:08:17;13.88;;;6.70;;
23115;SDS011;11727;52.134;5.052;2022-11-30T01:10:43;16.63;;;7.07;;
23115;SDS011;11727;52.134;5.052;2022-11-30T01:13:09;13.95;;;5.95;;
23115;SDS011;11727;52.134;5.052;2022-11-30T01:18:03;10.67;;;5.83;;
23115;SDS011;11727;52.134;5.052;2022-11-30T01:20:29;8.85;;;5.07;;
23115;SDS011;11727;52.134;5.052;2022-11-30T01:22:55;10.23;;;5.53;;
23115;SDS011;11727;52.134;5.052;2022-11-30T01:25:21;12.57;;;4.95;;
23115;SDS011;11727;52.134;5.052;2022-11-30T01:27:47;14.50;;;5.72;;
23115;SDS011;11727;52.134;5.052;2022-11-30T01:30:13;12.90;;;6.20;;
23115;SDS011;11727;52.134;5.052;2022-11-30T01:32:39;15.90;;;6.00;;
23115;SDS011;11727;52.134;5.052;2022-11-30T01:35:04;14.68;;;5.88;;
23115;SDS011;11727;52.134;5.052;2022-11-30T01:37:30;11.88;;;5.72;;
23115;SDS011;11727;52.134;5.052;2022-11-30T01:39:56;13.35;;;5.32;;
23115;SDS011;11727;52.134;5.052;2022-11-30T01:42:21;15.57;;;6.53;;
23115;SDS011;11727;52.134;5.052;2022-11-30T01:47:15;12.20;;;6.88;;
23115;SDS011;11727;52.134;5.052;2022-11-30T01:49:45;13.65;;;6.45;;
23115;SDS011;11727;52.134;5.052;2022-11-30T01:52:18;13.57;;;5.85;;
23115;SDS011;11727;52.134;5.052;2022-11-30T01:54:51;12.75;;;6.65;;
23115;SDS011;11727;52.134;5.052;2022-11-30T01:57:26;12.75;;;6.07;;
23115;SDS011;11727;52.134;5.052;2022-11-30T01:59:58;14.73;;;5.68;;
23115;SDS011;11727;52.134;5.052;2022-11-30T02:04:56;12.32;;;6.32;;
23115;SDS011;11727;52.134;5.052;2022-11-30T02:07:21;11.35;;;5.90;;
23115;SDS011;11727;52.134;5.052;2022-11-30T02:09:47;9.32;;;5.32;;
23115;SDS011;11727;52.134;5.052;2022-11-30T02:12:20;12.93;;;6.03;;
23115;SDS011;11727;52.134;5.052;2022-11-30T02:14:54;11.20;;;5.97;;
23115;SDS011;11727;52.134;5.052;2022-11-30T02:17:33;9.48;;;5.00;;
23115;SDS011;11727;52.134;5.052;2022-11-30T02:26:11;11.75;;;5.53;;
23115;SDS011;11727;52.134;5.052;2022-11-30T02:29:03;9.75;;;4.68;;
23115;SDS011;11727;52.134;5.052;2022-11-30T02:34:30;13.98;;;5.57;;
23115;SDS011;11727;52.134;5.052;2022-11-30T02:36:58;12.52;;;6.22;;
23115;SDS011;11727;52.134;5.052;2022-11-30T02:39:26;12.82;;;6.22;;
23115;SDS011;11727;52.134;5.052;2022-11-30T02:41:51;11.75;;;5.20;;
23115;SDS011;11727;52.134;5.052;2022-11-30T02:44:17;12.38;;;6.07;;
23115;SDS011;11727;52.134;5.052;2022-11-30T02:49:33;11.35;;;6.18;;
23115;SDS011;11727;52.134;5.052;2022-11-30T02:52:10;9.98;;;4.93;;
23115;SDS011;11727;52.134;5.052;2022-11-30T02:57:03;10.60;;;5.05;;
23115;SDS011;11727;52.134;5.052;2022-11-30T02:59:29;11.60;;;5.28;;
23115;SDS011;11727;52.134;5.052;2022-11-30T03:01:55;13.20;;;6.00;;
23115;SDS011;11727;52.134;5.052;2022-11-30T03:04:20;15.75;;;6.13;;
23115;SDS011;11727;52.134;5.052;2022-11-30T03:06:46;11.98;;;5.82;;
23115;SDS011;11727;52.134;5.052;2022-11-30T03:09:11;10.95;;;5.50;;
23115;SDS011;11727;52.134;5.052;2022-11-30T03:11:38;11.30;;;5.20;;
23115;SDS011;11727;52.134;5.052;2022-11-30T03:14:04;13.82;;;6.25;;
23115;SDS011;11727;52.134;5.052;2022-11-30T03:16:29;12.55;;;6.30;;
23115;SDS011;11727;52.134;5.052;2022-11-30T03:18:56;12.60;;;6.35;;
23115;SDS011;11727;52.134;5.052;2022-11-30T03:21:22;15.45;;;5.15;;
23115;SDS011;11727;52.134;5.052;2022-11-30T03:23:48;9.38;;;5.30;;
23115;SDS011;11727;52.134;5.052;2022-11-30T03:26:13;9.88;;;4.85;;
23115;SDS011;11727;52.134;5.052;2022-11-30T03:28:39;14.98;;;5.70;;
23115;SDS011;11727;52.134;5.052;2022-11-30T03:31:05;13.50;;;6.78;;
23115;SDS011;11727;52.134;5.052;2022-11-30T03:33:30;13.48;;;6.55;;
23115;SDS011;11727;52.134;5.052;2022-11-30T03:36:03;12.55;;;6.43;;
23115;SDS011;11727;52.134;5.052;2022-11-30T03:38:30;14.48;;;6.28;;
23115;SDS011;11727;52.134;5.052;2022-11-30T03:41:03;15.05;;;6.35;;
23115;SDS011;11727;52.134;5.052;2022-11-30T03:43:30;14.80;;;7.85;;
23115;SDS011;11727;52.134;5.052;2022-11-30T03:45:56;14.43;;;6.90;;
23115;SDS011;11727;52.134;5.052;2022-11-30T03:48:22;15.43;;;8.02;;
23115;SDS011;11727;52.134;5.052;2022-11-30T03:50:48;12.75;;;6.60;;
23115;SDS011;11727;52.134;5.052;2022-11-30T03:53:18;16.23;;;6.40;;
23115;SDS011;11727;52.134;5.052;2022-11-30T03:55:45;15.40;;;6.30;;
23115;SDS011;11727;52.134;5.052;2022-11-30T03:58:10;15.20;;;6.60;;
23115;SDS011;11727;52.134;5.052;2022-11-30T04:00:36;14.73;;;6.70;;
23115;SDS011;11727;52.134;5.052;2022-11-30T04:03:03;15.02;;;6.45;;
23115;SDS011;11727;52.134;5.052;2022-11-30T04:05:28;14.95;;;6.60;;
23115;SDS011;11727;52.134;5.052;2022-11-30T04:07:54;12.35;;;6.07;;
23115;SDS011;11727;52.134;5.052;2022-11-30T04:10:20;15.27;;;7.05;;
23115;SDS011;11727;52.134;5.052;2022-11-30T04:12:45;14.60;;;5.95;;
23115;SDS011;11727;52.134;5.052;2022-11-30T04:15:11;15.48;;;7.05;;
23115;SDS011;11727;52.134;5.052;2022-11-30T04:17:36;15.05;;;7.28;;
23115;SDS011;11727;52.134;5.052;2022-11-30T04:20:02;13.52;;;6.55;;
23115;SDS011;11727;52.134;5.052;2022-11-30T04:22:28;11.02;;;5.00;;
23115;SDS011;11727;52.134;5.052;2022-11-30T04:24:54;14.45;;;7.22;;
23115;SDS011;11727;52.134;5.052;2022-11-30T04:27:19;14.30;;;7.05;;
23115;SDS011;11727;52.134;5.052;2022-11-30T04:29:45;17.00;;;8.15;;
23115;SDS011;11727;52.134;5.052;2022-11-30T04:32:11;13.48;;;6.03;;
23115;SDS011;11727;52.134;5.052;2022-11-30T04:34:45;12.18;;;6.47;;
23115;SDS011;11727;52.134;5.052;2022-11-30T04:37:11;12.88;;;6.93;;
23115;SDS011;11727;52.134;5.052;2022-11-30T04:39:36;18.40;;;7.53;;
23115;SDS011;11727;52.134;5.052;2022-11-30T04:42:02;11.45;;;5.78;;
23115;SDS011;11727;52.134;5.052;2022-11-30T04:44:28;16.60;;;6.35;;
23115;SDS011;11727;52.134;5.052;2022-11-30T04:46:53;18.05;;;7.30;;
23115;SDS011;11727;52.134;5.052;2022-11-30T04:49:19;15.43;;;7.35;;
23115;SDS011;11727;52.134;5.052;2022-11-30T04:51:44;14.50;;;7.10;;
23115;SDS011;11727;52.134;5.052;2022-11-30T04:54:10;14.43;;;6.82;;
23115;SDS011;11727;52.134;5.052;2022-11-30T04:56:35;16.13;;;7.43;;
23115;SDS011;11727;52.134;5.052;2022-11-30T04:59:01;19.58;;;7.88;;
23115;SDS011;11727;52.134;5.052;2022-11-30T05:01:27;16.20;;;7.05;;
23115;SDS011;11727;52.134;5.052;2022-11-30T05:03:53;15.57;;;6.70;;
23115;SDS011;11727;52.134;5.052;2022-11-30T05:06:18;15.25;;;6.25;;
23115;SDS011;11727;52.134;5.052;2022-11-30T05:08:44;16.98;;;7.30;;
23115;SDS011;11727;52.134;5.052;2022-11-30T05:11:10;14.02;;;6.70;;
23115;SDS011;11727;52.134;5.052;2022-11-30T05:13:35;13.73;;;6.90;;
23115;SDS011;11727;52.134;5.052;2022-11-30T05:16:01;18.25;;;6.93;;
23115;SDS011;11727;52.134;5.052;2022-11-30T05:18:26;17.83;;;7.95;;
23115;SDS011;11727;52.134;5.052;2022-11-30T05:20:53;12.80;;;7.20;;
23115;SDS011;11727;52.134;5.052;2022-11-30T05:23:19;15.35;;;6.10;;
23115;SDS011;11727;52.134;5.052;2022-11-30T05:25:45;16.98;;;7.10;;
23115;SDS011;11727;52.134;5.052;2022-11-30T05:28:11;16.00;;;6.30;;
23115;SDS011;11727;52.134;5.052;2022-11-30T05:30:40;13.75;;;5.80;;
23115;SDS011;11727;52.134;5.052;2022-11-30T05:33:07;15.27;;;6.97;;
23115;SDS011;11727;52.134;5.052;2022-11-30T05:35:33;15.73;;;6.47;;
23115;SDS011;11727;52.134;5.052;2022-11-30T05:37:59;16.20;;;7.05;;
23115;SDS011;11727;52.134;5.052;2022-11-30T05:40:24;12.85;;;6.40;;
23115;SDS011;11727;52.134;5.052;2022-11-30T05:42:55;13.38;;;5.45;;
23115;SDS011;11727;52.134;5.052;2022-11-30T05:45:22;16.92;;;6.53;;
23115;SDS011;11727;52.134;5.052;2022-11-30T05:47:48;13.77;;;6.20;;
23115;SDS011;11727;52.134;5.052;2022-11-30T05:50:14;13.73;;;5.93;;
23115;SDS011;11727;52.134;5.052;2022-11-30T05:52:40;14.27;;;5.72;;
23115;SDS011;11727;52.134;5.052;2022-11-30T05:55:05;11.15;;;5.80;;
23115;SDS011;11727;52.134;5.052;2022-11-30T05:57:34;11.77;;;5.95;;
23115;SDS011;11727;52.134;5.052;2022-11-30T06:00:01;12.52;;;5.53;;
23115;SDS011;11727;52.134;5.052;2022-11-30T06:02:31;14.98;;;6.75;;
23115;SDS011;11727;52.134;5.052;2022-11-30T06:04:56;17.00;;;6.40;;
23115;SDS011;11727;52.134;5.052;2022-11-30T06:07:22;15.25;;;6.22;;
23115;SDS011;11727;52.134;5.052;2022-11-30T06:09:48;13.93;;;6.68;;
23115;SDS011;11727;52.134;5.052;2022-11-30T06:12:13;13.68;;;5.78;;
23115;SDS011;11727;52.134;5.052;2022-11-30T06:14:39;13.55;;;5.85;;
23115;SDS011;11727;52.134;5.052;2022-11-30T06:17:04;13.65;;;6.32;;
23115;SDS011;11727;52.134;5.052;2022-11-30T06:19:30;12.60;;;5.40;;
23115;SDS011;11727;52.134;5.052;2022-11-30T06:21:56;10.68;;;5.78;;
23115;SDS011;11727;52.134;5.052;2022-11-30T06:24:21;12.35;;;6.28;;
23115;SDS011;11727;52.134;5.052;2022-11-30T06:26:47;11.80;;;5.80;;
23115;SDS011;11727;52.134;5.052;2022-11-30T06:29:12;12.55;;;5.10;;
23115;SDS011;11727;52.134;5.052;2022-11-30T06:31:38;13.82;;;5.68;;
23115;SDS011;11727;52.134;5.052;2022-11-30T06:34:04;15.45;;;5.95;;
23115;SDS011;11727;52.134;5.052;2022-11-30T06:36:29;12.85;;;5.90;;
23115;SDS011;11727;52.134;5.052;2022-11-30T06:38:56;11.90;;;6.03;;
23115;SDS011;11727;52.134;5.052;2022-11-30T06:41:21;13.05;;;6.50;;
23115;SDS011;11727;52.134;5.052;2022-11-30T06:43:47;17.83;;;6.45;;
23115;SDS011;11727;52.134;5.052;2022-11-30T06:46:12;13.02;;;6.45;;
23115;SDS011;11727;52.134;5.052;2022-11-30T06:48:38;11.73;;;5.68;;
23115;SDS011;11727;52.134;5.052;2022-11-30T06:51:05;14.65;;;5.95;;
23115;SDS011;11727;52.134;5.052;2022-11-30T06:53:31;10.82;;;5.65;;
23115;SDS011;11727;52.134;5.052;2022-11-30T06:55:56;15.05;;;6.30;;
23115;SDS011;11727;52.134;5.052;2022-11-30T06:58:22;10.25;;;4.90;;
23115;SDS011;11727;52.134;5.052;2022-11-30T07:00:48;14.38;;;6.45;;
23115;SDS011;11727;52.134;5.052;2022-11-30T07:03:13;13.57;;;5.38;;
23115;SDS011;11727;52.134;5.052;2022-11-30T07:05:43;11.13;;;5.70;;
23115;SDS011;11727;52.134;5.052;2022-11-30T07:08:10;14.38;;;6.00;;
23115;SDS011;11727;52.134;5.052;2022-11-30T07:10:40;10.98;;;5.35;;
23115;SDS011;11727;52.134;5.052;2022-11-30T07:13:10;9.52;;;4.72;;
23115;SDS011;11727;52.134;5.052;2022-11-30T07:15:37;10.73;;;5.63;;
23115;SDS011;11727;52.134;5.052;2022-11-30T07:18:04;12.45;;;5.80;;
23115;SDS011;11727;52.134;5.052;2022-11-30T07:20:30;10.57;;;4.38;;
23115;SDS011;11727;52.134;5.052;2022-11-30T07:22:56;15.68;;;6.32;;
23115;SDS011;11727;52.134;5.052;2022-11-30T07:25:21;14.95;;;5.45;;
23115;SDS011;11727;52.134;5.052;2022-11-30T07:28:06;13.30;;;5.60;;
23115;SDS011;11727;52.134;5.052;2022-11-30T07:30:33;11.27;;;5.03;;
23115;SDS011;11727;52.134;5.052;2022-11-30T07:32:58;13.90;;;6.95;;
23115;SDS011;11727;52.134;5.052;2022-11-30T07:35:24;14.68;;;7.13;;
23115;SDS011;11727;52.134;5.052;2022-11-30T07:37:50;20.13;;;7.70;;
23115;SDS011;11727;52.134;5.052;2022-11-30T07:40:15;11.98;;;5.70;;
23115;SDS011;11727;52.134;5.052;2022-11-30T07:42:41;19.45;;;7.95;;
23115;SDS011;11727;52.134;5.052;2022-11-30T07:45:07;15.13;;;6.35;;
23115;SDS011;11727;52.134;5.052;2022-11-30T07:47:33;17.73;;;7.40;;
23115;SDS011;11727;52.134;5.052;2022-11-30T07:49:58;21.00;;;8.38;;
23115;SDS011;11727;52.134;5.052;2022-11-30T07:52:24;14.40;;;6.82;;
23115;SDS011;11727;52.134;5.052;2022-11-30T07:57:40;12.90;;;6.47;;
23115;SDS011;11727;52.134;5.052;2022-11-30T08:00:06;16.08;;;6.95;;
23115;SDS011;11727;52.134;5.052;2022-11-30T08:02:33;17.00;;;7.28;;
23115;SDS011;11727;52.134;5.052;2022-11-30T08:04:58;14.80;;;7.15;;
23115;SDS011;11727;52.134;5.052;2022-11-30T08:07:24;15.43;;;7.35;;
23115;SDS011;11727;52.134;5.052;2022-11-30T08:09:49;14.50;;;6.50;;
23115;SDS011;11727;52.134;5.052;2022-11-30T08:12:15;14.52;;;7.13;;
23115;SDS011;11727;52.134;5.052;2022-11-30T08:14:41;18.83;;;6.60;;
23115;SDS011;11727;52.134;5.052;2022-11-30T08:17:07;18.13;;;8.05;;
23115;SDS011;11727;52.134;5.052;2022-11-30T08:19:33;16.00;;;7.10;;
23115;SDS011;11727;52.134;5.052;2022-11-30T08:21:58;15.48;;;7.22;;
23115;SDS011;11727;52.134;5.052;2022-11-30T08:24:24;18.10;;;7.55;;
23115;SDS011;11727;52.134;5.052;2022-11-30T08:26:50;16.50;;;7.18;;
23115;SDS011;11727;52.134;5.052;2022-11-30T08:29:17;12.90;;;6.63;;
23115;SDS011;11727;52.134;5.052;2022-11-30T08:31:42;12.65;;;6.57;;
23115;SDS011;11727;52.134;5.052;2022-11-30T08:34:09;13.38;;;6.07;;
23115;SDS011;11727;52.134;5.052;2022-11-30T08:39:02;18.55;;;7.97;;
23115;SDS011;11727;52.134;5.052;2022-11-30T08:41:29;20.67;;;8.13;;
23115;SDS011;11727;52.134;5.052;2022-11-30T08:43:55;16.95;;;6.72;;
23115;SDS011;11727;52.134;5.052;2022-11-30T08:46:21;18.75;;;7.63;;
23115;SDS011;11727;52.134;5.052;2022-11-30T08:48:48;14.80;;;7.15;;
23115;SDS011;11727;52.134;5.052;2022-11-30T08:51:14;22.23;;;7.78;;
23115;SDS011;11727;52.134;5.052;2022-11-30T08:53:42;15.13;;;6.45;;
23115;SDS011;11727;52.134;5.052;2022-11-30T08:56:10;17.95;;;7.38;;
23115;SDS011;11727;52.134;5.052;2022-11-30T08:58:38;16.10;;;7.93;;
23115;SDS011;11727;52.134;5.052;2022-11-30T09:01:08;19.00;;;8.43;;
23115;SDS011;11727;52.134;5.052;2022-11-30T09:03:39;18.60;;;8.07;;
23115;SDS011;11727;52.134;5.052;2022-11-30T09:06:10;17.65;;;7.95;;
23115;SDS011;11727;52.134;5.052;2022-11-30T09:08:38;16.80;;;7.93;;
23115;SDS011;11727;52.134;5.052;2022-11-30T09:11:08;16.87;;;8.23;;
23115;SDS011;11727;52.134;5.052;2022-11-30T09:13:39;17.80;;;7.57;;
23115;SDS011;11727;52.134;5.052;2022-11-30T09:16:06;19.47;;;8.27;;
23115;SDS011;11727;52.134;5.052;2022-11-30T09:18:33;18.75;;;8.05;;
23115;SDS011;11727;52.134;5.052;2022-11-30T09:20:59;18.60;;;7.82;;
23115;SDS011;11727;52.134;5.052;2022-11-30T09:23:26;17.13;;;7.88;;
23115;SDS011;11727;52.134;5.052;2022-11-30T09:25:56;17.52;;;8.07;;
23115;SDS011;11727;52.134;5.052;2022-11-30T09:28:23;22.00;;;9.10;;
23115;SDS011;11727;52.134;5.052;2022-11-30T09:30:49;17.60;;;7.72;;
23115;SDS011;11727;52.134;5.052;2022-11-30T09:33:15;14.35;;;7.80;;
23115;SDS011;11727;52.134;5.052;2022-11-30T09:35:40;22.77;;;8.55;;
23115;SDS011;11727;52.134;5.052;2022-11-30T09:38:06;16.98;;;8.27;;
23115;SDS011;11727;52.134;5.052;2022-11-30T09:40:32;16.83;;;8.13;;
23115;SDS011;11727;52.134;5.052;2022-11-30T09:43:05;24.95;;;9.57;;
23115;SDS011;11727;52.134;5.052;2022-11-30T09:45:45;21.40;;;8.38;;
23115;SDS011;11727;52.134;5.052;2022-11-30T09:50:52;23.45;;;8.73;;
23115;SDS011;11727;52.134;5.052;2022-11-30T09:53:21;16.50;;;8.45;;
23115;SDS011;11727;52.134;5.052;2022-11-30T09:55:53;17.75;;;7.38;;
23115;SDS011;11727;52.134;5.052;2022-11-30T09:58:22;18.88;;;7.45;;
23115;SDS011;11727;52.134;5.052;2022-11-30T10:00:49;16.75;;;8.40;;
23115;SDS011;11727;52.134;5.052;2022-11-30T10:03:14;20.40;;;8.70;;
23115;SDS011;11727;52.134;5.052;2022-11-30T10:05:46;15.90;;;7.97;;
23115;SDS011;11727;52.134;5.052;2022-11-30T10:08:49;13.85;;;7.40;;
23115;SDS011;11727;52.134;5.052;2022-11-30T10:11:52;18.20;;;8.63;;
23115;SDS011;11727;52.134;5.052;2022-11-30T10:23:00;16.67;;;8.10;;
23115;SDS011;11727;52.134;5.052;2022-11-30T10:28:17;17.58;;;7.45;;
23115;SDS011;11727;52.134;5.052;2022-11-30T10:30:54;15.77;;;7.35;;
23115;SDS011;11727;52.134;5.052;2022-11-30T10:33:22;18.98;;;8.13;;
23115;SDS011;11727;52.134;5.052;2022-11-30T10:35:53;22.73;;;8.38;;
23115;SDS011;11727;52.134;5.052;2022-11-30T10:38:25;16.95;;;7.90;;
23115;SDS011;11727;52.134;5.052;2022-11-30T10:43:29;21.20;;;8.73;;
23115;SDS011;11727;52.134;5.052;2022-11-30T10:46:02;16.60;;;8.57;;
23115;SDS011;11727;52.134;5.052;2022-11-30T10:48:42;21.88;;;9.73;;
23115;SDS011;11727;52.134;5.052;2022-11-30T10:51:14;17.52;;;8.80;;
23115;SDS011;11727;52.134;5.052;2022-11-30T10:53:40;20.30;;;7.95;;
23115;SDS011;11727;52.134;5.052;2022-11-30T10:56:07;20.67;;;8.25;;
23115;SDS011;11727;52.134;5.052;2022-11-30T10:58:36;21.25;;;9.43;;
23115;SDS011;11727;52.134;5.052;2022-11-30T11:01:34;19.55;;;8.50;;
23115;SDS011;11727;52.134;5.052;2022-11-30T11:06:44;19.92;;;9.25;;
23115;SDS011;11727;52.134;5.052;2022-11-30T11:09:31;18.70;;;8.13;;
23115;SDS011;11727;52.134;5.052;2022-11-30T11:12:05;17.23;;;8.50;;
23115;SDS011;11727;52.134;5.052;2022-11-30T11:14:43;18.58;;;7.88;;
23115;SDS011;11727;52.134;5.052;2022-11-30T11:19:45;18.00;;;8.98;;
23115;SDS011;11727;52.134;5.052;2022-11-30T11:24:52;17.23;;;8.70;;
23115;SDS011;11727;52.134;5.052;2022-11-30T11:27:32;20.83;;;9.13;;
23115;SDS011;11727;52.134;5.052;2022-11-30T11:30:02;16.67;;;8.68;;
23115;SDS011;11727;52.134;5.052;2022-11-30T11:32:32;18.48;;;9.00;;
23115;SDS011;11727;52.134;5.052;2022-11-30T11:34:57;22.90;;;8.95;;
23115;SDS011;11727;52.134;5.052;2022-11-30T11:37:27;20.10;;;8.65;;
23115;SDS011;11727;52.134;5.052;2022-11-30T11:42:48;20.80;;;9.60;;
23115;SDS011;11727;52.134;5.052;2022-11-30T11:45:17;25.15;;;9.57;;
23115;SDS011;11727;52.134;5.052;2022-11-30T11:48:00;19.70;;;9.88;;
23115;SDS011;11727;52.134;5.052;2022-11-30T11:50:28;21.30;;;9.50;;
23115;SDS011;11727;52.134;5.052;2022-11-30T11:53:33;22.60;;;9.47;;
23115;SDS011;11727;52.134;5.052;2022-11-30T11:56:10;19.10;;;10.02;;
23115;SDS011;11727;52.134;5.052;2022-11-30T11:58:57;25.33;;;9.55;;
23115;SDS011;11727;52.134;5.052;2022-11-30T12:06:54;21.00;;;9.20;;
23115;SDS011;11727;52.134;5.052;2022-11-30T12:09:24;19.52;;;9.65;;
23115;SDS011;11727;52.134;5.052;2022-11-30T12:11:54;22.25;;;10.20;;
23115;SDS011;11727;52.134;5.052;2022-11-30T12:14:20;25.92;;;10.18;;
23115;SDS011;11727;52.134;5.052;2022-11-30T12:19:43;21.92;;;9.27;;
23115;SDS011;11727;52.134;5.052;2022-11-30T12:33:55;20.92;;;9.80;;
23115;SDS011;11727;52.134;5.052;2022-11-30T12:39:13;18.98;;;8.60;;
23115;SDS011;11727;52.134;5.052;2022-11-30T12:42:03;20.83;;;9.18;;
23115;SDS011;11727;52.134;5.052;2022-11-30T12:44:39;19.15;;;9.98;;
23115;SDS011;11727;52.134;5.052;2022-11-30T12:53:04;19.73;;;9.32;;
23115;SDS011;11727;52.134;5.052;2022-11-30T12:55:45;25.27;;;9.77;;
23115;SDS011;11727;52.134;5.052;2022-11-30T12:58:54;20.38;;;8.82;;
23115;SDS011;11727;52.134;5.052;2022-11-30T13:01:19;19.70;;;9.15;;
23115;SDS011;11727;52.134;5.052;2022-11-30T13:06:32;23.90;;;10.30;;
23115;SDS011;11727;52.134;5.052;2022-11-30T13:09:08;24.63;;;9.55;;
23115;SDS011;11727;52.134;5.052;2022-11-30T13:11:37;20.27;;;9.05;;
23115;SDS011;11727;52.134;5.052;2022-11-30T13:14:07;25.98;;;10.07;;
23115;SDS011;11727;52.134;5.052;2022-11-30T13:16:40;20.23;;;9.35;;
23115;SDS011;11727;52.134;5.052;2022-11-30T13:19:53;23.27;;;10.02;;
23115;SDS011;11727;52.134;5.052;2022-11-30T13:22:22;27.83;;;9.63;;
23115;SDS011;11727;52.134;5.052;2022-11-30T13:28:09;21.45;;;9.32;;
23115;SDS011;11727;52.134;5.052;2022-11-30T13:35:59;28.17;;;10.60;;
23115;SDS011;11727;52.134;5.052;2022-11-30T13:38:29;26.45;;;11.68;;
23115;SDS011;11727;52.134;5.052;2022-11-30T13:40:58;20.65;;;9.75;;
23115;SDS011;11727;52.134;5.052;2022-11-30T13:43:29;25.30;;;10.25;;
23115;SDS011;11727;52.134;5.052;2022-11-30T13:46:12;27.02;;;10.00;;
23115;SDS011;11727;52.134;5.052;2022-11-30T13:48:39;26.05;;;10.45;;
23115;SDS011;11727;52.134;5.052;2022-11-30T13:53:33;23.30;;;10.50;;
23115;SDS011;11727;52.134;5.052;2022-11-30T13:56:02;21.67;;;8.13;;
23115;SDS011;11727;52.134;5.052;2022-11-30T14:01:51;18.27;;;9.02;;
23115;SDS011;11727;52.134;5.052;2022-11-30T14:06:47;19.55;;;9.15;;
23115;SDS011;11727;52.134;5.052;2022-11-30T14:09:18;22.17;;;9.38;;
23115;SDS011;11727;52.134;5.052;2022-11-30T14:12:43;20.95;;;9.57;;
23115;SDS011;11727;52.134;5.052;2022-11-30T14:14:56;27.13;;;9.48;;
23115;SDS011;11727;52.134;5.052;2022-11-30T14:17:24;29.60;;;10.30;;
23115;SDS011;11727;52.134;5.052;2022-11-30T14:19:53;25.42;;;9.52;;
23115;SDS011;11727;52.134;5.052;2022-11-30T14:22:25;17.73;;;8.68;;
23115;SDS011;11727;52.134;5.052;2022-11-30T14:24:52;25.95;;;10.60;;
23115;SDS011;11727;52.134;5.052;2022-11-30T14:27:21;24.20;;;9.77;;
23115;SDS011;11727;52.134;5.052;2022-11-30T14:29:49;24.90;;;9.50;;
23115;SDS011;11727;52.134;5.052;2022-11-30T14:32:22;26.02;;;10.15;;
23115;SDS011;11727;52.134;5.052;2022-11-30T14:34:59;22.83;;;9.18;;
23115;SDS011;11727;52.134;5.052;2022-11-30T14:37:39;26.98;;;10.00;;
23115;SDS011;11727;52.134;5.052;2022-11-30T14:40:13;17.02;;;8.45;;
23115;SDS011;11727;52.134;5.052;2022-11-30T14:42:45;21.02;;;8.50;;
23115;SDS011;11727;52.134;5.052;2022-11-30T14:45:22;21.38;;;9.10;;
23115;SDS011;11727;52.134;5.052;2022-11-30T14:48:05;28.60;;;10.82;;
23115;SDS011;11727;52.134;5.052;2022-11-30T14:50:41;21.40;;;8.38;;
23115;SDS011;11727;52.134;5.052;2022-11-30T14:58:54;18.83;;;7.43;;
23115;SDS011;11727;52.134;5.052;2022-11-30T15:01:30;22.10;;;8.68;;
23115;SDS011;11727;52.134;5.052;2022-11-30T15:03:59;23.02;;;8.93;;
23115;SDS011;11727;52.134;5.052;2022-11-30T15:06:30;19.60;;;8.85;;
23115;SDS011;11727;52.134;5.052;2022-11-30T15:08:57;23.50;;;8.98;;
23115;SDS011;11727;52.134;5.052;2022-11-30T15:11:25;17.42;;;8.50;;
23115;SDS011;11727;52.134;5.052;2022-11-30T15:13:53;19.33;;;9.33;;
23115;SDS011;11727;52.134;5.052;2022-11-30T15:16:24;20.02;;;8.68;;
23115;SDS011;11727;52.134;5.052;2022-11-30T15:18:52;25.60;;;8.75;;
23115;SDS011;11727;52.134;5.052;2022-11-30T15:21:29;24.95;;;9.88;;
23115;SDS011;11727;52.134;5.052;2022-11-30T15:23:57;19.65;;;9.18;;
23115;SDS011;11727;52.134;5.052;2022-11-30T15:26:27;27.83;;;9.52;;
23115;SDS011;11727;52.134;5.052;2022-11-30T15:29:01;18.65;;;8.50;;
23115;SDS011;11727;52.134;5.052;2022-11-30T15:31:41;18.58;;;8.38;;
23115;SDS011;11727;52.134;5.052;2022-11-30T15:34:17;18.50;;;8.88;;
23115;SDS011;11727;52.134;5.052;2022-11-30T15:36:44;18.52;;;8.30;;
23115;SDS011;11727;52.134;5.052;2022-11-30T15:39:15;21.17;;;9.32;;
23115;SDS011;11727;52.134;5.052;2022-11-30T15:41:45;23.73;;;9.35;;
23115;SDS011;11727;52.134;5.052;2022-11-30T15:50:32;17.90;;;8.30;;
23115;SDS011;11727;52.134;5.052;2022-11-30T15:53:23;19.15;;;8.00;;
23115;SDS011;11727;52.134;5.052;2022-11-30T15:55:55;23.52;;;10.57;;
23115;SDS011;11727;52.134;5.052;2022-11-30T15:58:29;27.10;;;10.38;;
23115;SDS011;11727;52.134;5.052;2022-11-30T16:03:56;25.17;;;9.32;;
23115;SDS011;11727;52.134;5.052;2022-11-30T16:06:23;26.17;;;9.55;;
23115;SDS011;11727;52.134;5.052;2022-11-30T16:08:51;25.35;;;9.90;;
23115;SDS011;11727;52.134;5.052;2022-11-30T16:11:17;32.63;;;11.90;;
23115;SDS011;11727;52.134;5.052;2022-11-30T16:13:43;29.15;;;8.85;;
23115;SDS011;11727;52.134;5.052;2022-11-30T16:16:11;24.42;;;9.75;;
23115;SDS011;11727;52.134;5.052;2022-11-30T16:18:38;28.67;;;9.60;;
23115;SDS011;11727;52.134;5.052;2022-11-30T16:21:04;26.90;;;10.40;;
23115;SDS011;11727;52.134;5.052;2022-11-30T16:23:32;26.42;;;10.07;;
23115;SDS011;11727;52.134;5.052;2022-11-30T16:25:58;24.67;;;9.63;;
23115;SDS011;11727;52.134;5.052;2022-11-30T16:28:24;24.25;;;10.30;;
23115;SDS011;11727;52.134;5.052;2022-11-30T16:30:50;24.38;;;9.88;;
23115;SDS011;11727;52.134;5.052;2022-11-30T16:33:19;23.48;;;8.77;;
23115;SDS011;11727;52.134;5.052;2022-11-30T16:35:52;26.70;;;9.20;;
23115;SDS011;11727;52.134;5.052;2022-11-30T16:38:24;22.63;;;9.68;;
23115;SDS011;11727;52.134;5.052;2022-11-30T16:40:51;25.48;;;9.55;;